TimeEDT,TemperatureF,Dew PointF,Humidity,Sea Level PressureIn,VisibilityMPH,Wind Direction,Wind SpeedMPH,Gust SpeedMPH,PrecipitationIn,Events,Conditions,WindDirDegrees,DateUTC
12:15 AM,75.2,73.4,94,29.97,3.0,Calm,Calm,-,0.00,,Mostly Cloudy,0,2013-06-04 04:15:00
12:35 AM,75.2,73.4,94,29.96,3.0,Calm,Calm,-,0.00,,Mostly Cloudy,0,2013-06-04 04:35:00
12:55 AM,73.4,71.6,94,29.95,1.2,Calm,Calm,-,0.00,,Mostly Cloudy,0,2013-06-04 04:55:00
1:15 AM,75.2,73.4,94,29.95,5.0,SSW,4.6,-,0.00,,Mostly Cloudy,200,2013-06-04 05:15:00
1:35 AM,75.2,75.2,100,29.95,5.0,SSW,6.9,-,0.00,,Mostly Cloudy,200,2013-06-04 05:35:00
1:55 AM,77.0,75.2,94,29.94,5.0,SSW,8.1,-,0.00,,Partly Cloudy,210,2013-06-04 05:55:00
2:15 AM,77.0,75.2,94,29.93,5.0,SSW,8.1,-,0.00,,Partly Cloudy,210,2013-06-04 06:15:00
2:35 AM,77.0,75.2,94,29.92,5.0,SSW,6.9,-,0.00,,Clear,210,2013-06-04 06:35:00
2:55 AM,75.2,71.6,89,29.92,10.0,WSW,4.6,-,0.00,,Clear,240,2013-06-04 06:55:00
3:15 AM,75.2,71.6,89,29.92,10.0,Calm,Calm,-,0.00,,Clear,0,2013-06-04 07:15:00
3:35 AM,75.2,71.6,89,29.92,8.0,Calm,Calm,-,0.00,,Clear,0,2013-06-04 07:35:00
3:55 AM,73.4,71.6,94,29.93,9.0,Calm,Calm,-,0.00,,Clear,0,2013-06-04 07:55:00
4:15 AM,71.6,71.6,100,29.92,5.0,Calm,Calm,-,0.00,,Clear,0,2013-06-04 08:15:00
4:35 AM,73.4,71.6,94,29.92,3.0,Calm,Calm,-,0.00,,Clear,0,2013-06-04 08:35:00
4:55 AM,71.6,71.6,100,29.93,1.5,Calm,Calm,-,0.00,,Clear,0,2013-06-04 08:55:00
5:15 AM,71.6,71.6,100,29.93,4.0,Calm,Calm,-,0.00,,Clear,0,2013-06-04 09:15:00
5:35 AM,71.6,71.6,100,29.93,5.0,Calm,Calm,-,0.00,,Clear,0,2013-06-04 09:35:00
5:55 AM,71.6,69.8,94,29.94,5.0,Calm,Calm,-,0.00,,Clear,0,2013-06-04 09:55:00
6:15 AM,71.6,71.6,100,29.95,4.0,Calm,Calm,-,0.00,,Clear,0,2013-06-04 10:15:00
6:35 AM,71.6,71.6,100,29.96,5.0,Calm,Calm,-,0.00,,Clear,0,2013-06-04 10:35:00
6:55 AM,73.4,71.6,94,29.97,7.0,Calm,Calm,-,0.00,,Clear,0,2013-06-04 10:55:00
7:15 AM,75.2,73.4,94,29.97,5.0,Calm,Calm,-,0.00,,Partly Cloudy,0,2013-06-04 11:15:00
7:35 AM,75.2,73.4,94,29.97,3.0,NW,3.5,-,0.00,,Mostly Cloudy,310,2013-06-04 11:35:00
7:55 AM,77.0,73.4,89,29.98,1.2,NW,4.6,-,0.00,,Overcast,320,2013-06-04 11:55:00
8:15 AM,77.0,73.4,89,29.98,5.0,NNW,6.9,-,0.00,,Overcast,330,2013-06-04 12:15:00
8:35 AM,80.6,73.4,79,29.98,10.0,WNW,6.9,-,0.00,,Partly Cloudy,300,2013-06-04 12:35:00
8:55 AM,80.6,73.4,79,29.99,10.0,WNW,4.6,-,0.00,,Clear,300,2013-06-04 12:55:00
9:15 AM,82.4,73.4,74,29.99,10.0,Calm,Calm,-,0.00,,Clear,0,2013-06-04 13:15:00
9:35 AM,84.2,73.4,70,29.99,10.0,Calm,Calm,-,0.00,,Clear,0,2013-06-04 13:35:00
9:55 AM,82.4,73.4,74,30.00,10.0,Calm,Calm,-,0.00,,Partly Cloudy,0,2013-06-04 13:55:00
10:15 AM,84.2,73.4,70,30.00,10.0,Calm,Calm,-,0.00,,Clear,0,2013-06-04 14:15:00
10:35 AM,84.2,73.4,70,30.00,10.0,Calm,Calm,-,0.00,,Partly Cloudy,0,2013-06-04 14:35:00
10:55 AM,86.0,73.4,66,30.00,10.0,NNE,6.9,-,0.00,,Mostly Cloudy,30,2013-06-04 14:55:00
11:15 AM,84.2,75.2,74,30.00,10.0,ESE,5.8,-,0.00,,Mostly Cloudy,110,2013-06-04 15:15:00
11:35 AM,86.0,75.2,70,30.00,10.0,ESE,8.1,-,0.00,,Scattered Clouds,110,2013-06-04 15:35:00
11:55 AM,82.4,75.2,79,30.00,8.0,East,12.7,-,0.00,,Mostly Cloudy,100,2013-06-04 15:55:00
12:15 PM,80.6,73.4,79,30.01,9.0,ESE,9.2,-,0.00,,Mostly Cloudy,110,2013-06-04 16:15:00
12:35 PM,80.6,75.2,84,30.00,7.0,East,13.8,-,0.00,,Overcast,100,2013-06-04 16:35:00
12:55 PM,84.2,75.2,74,30.00,9.0,East,15.0,-,0.00,,Mostly Cloudy,90,2013-06-04 16:55:00
1:15 PM,80.6,75.2,84,30.01,6.0,ENE,13.8,-,0.00,Thunderstorm,Unknown,70,2013-06-04 17:15:00
1:35 PM,75.2,71.6,89,30.02,0.5,West,5.8,28.8,0.52,Rain-Thunderstorm,Heavy Thunderstorms and Rain,270,2013-06-04 17:35:00
1:55 PM,75.2,73.4,94,30.01,1.8,Calm,Calm,-,0.63,Rain,Light Rain,0,2013-06-04 17:55:00
2:15 PM,78.8,75.2,89,29.99,3.0,ESE,8.1,-,0.01,,Mostly Cloudy,110,2013-06-04 18:15:00
2:35 PM,80.6,75.2,84,29.98,3.0,East,6.9,-,0.01,,Haze,80,2013-06-04 18:35:00
2:55 PM,82.4,75.2,79,29.98,5.0,East,6.9,-,0.01,,Haze,90,2013-06-04 18:55:00
3:15 PM,80.6,75.2,84,29.97,5.0,East,9.2,-,0.00,,Haze,100,2013-06-04 19:15:00
3:35 PM,80.6,75.2,84,29.99,4.0,ESE,6.9,-,0.00,,Haze,110,2013-06-04 19:35:00
3:55 PM,78.8,75.2,89,30.00,4.0,ESE,8.1,-,0.00,,Mostly Cloudy,110,2013-06-04 19:55:00
4:15 PM,78.8,73.4,83,29.98,5.0,East,8.1,-,0.00,,Haze,100,2013-06-04 20:15:00
4:35 PM,78.8,75.2,89,29.99,5.0,East,5.8,-,0.00,,Mostly Cloudy,100,2013-06-04 20:35:00
4:55 PM,80.6,75.2,84,29.99,6.0,ESE,9.2,-,0.00,,Haze,110,2013-06-04 20:55:00
5:15 PM,78.8,75.2,89,29.98,7.0,ESE,9.2,-,0.00,,Overcast,110,2013-06-04 21:15:00
5:35 PM,78.8,75.2,89,29.98,7.0,SE,6.9,-,0.00,,Mostly Cloudy,130,2013-06-04 21:35:00
5:55 PM,78.8,75.2,89,29.98,7.0,ESE,8.1,-,0.00,,Mostly Cloudy,120,2013-06-04 21:55:00
6:15 PM,78.8,75.2,89,30.00,7.0,East,4.6,-,0.00,,Overcast,80,2013-06-04 22:15:00
6:35 PM,78.8,75.2,89,30.00,8.0,East,6.9,-,0.00,,Overcast,90,2013-06-04 22:35:00
6:55 PM,78.8,75.2,89,30.01,7.0,East,6.9,-,0.00,,Overcast,90,2013-06-04 22:55:00
7:15 PM,78.8,75.2,89,29.99,7.0,ESE,6.9,-,0.00,,Scattered Clouds,120,2013-06-04 23:15:00
7:35 PM,78.8,75.2,89,30.01,5.0,ENE,5.8,-,0.00,Rain,Light Rain,60,2013-06-04 23:35:00
7:55 PM,78.8,75.2,89,30.01,5.0,NE,5.8,-,0.00,,Light Drizzle,50,2013-06-04 23:55:00
8:15 PM,78.8,75.2,89,30.02,5.0,East,5.8,-,0.02,Rain,Light Rain,80,2013-06-05 00:15:00
8:35 PM,78.8,75.2,89,30.02,4.0,South,4.6,-,0.11,Rain,Light Rain,170,2013-06-05 00:35:00
8:55 PM,78.8,75.2,89,30.01,5.0,South,6.9,-,0.13,,Light Drizzle,170,2013-06-05 00:55:00
9:15 PM,78.8,75.2,89,30.01,8.0,East,4.6,-,0.00,,Scattered Clouds,90,2013-06-05 01:15:00
9:35 PM,78.8,75.2,89,30.04,10.0,Calm,Calm,-,0.00,,Mostly Cloudy,0,2013-06-05 01:35:00
9:55 PM,77.0,73.4,89,30.03,7.0,SE,4.6,-,0.00,,Mostly Cloudy,130,2013-06-05 01:55:00
10:15 PM,77.0,73.4,89,30.04,9.0,East,5.8,-,0.00,,Mostly Cloudy,90,2013-06-05 02:15:00
10:35 PM,75.2,73.4,94,30.03,10.0,SE,6.9,-,0.00,,Scattered Clouds,130,2013-06-05 02:35:00
10:55 PM,75.2,73.4,94,30.05,10.0,Calm,Calm,-,0.00,,Clear,0,2013-06-05 02:55:00
11:15 PM,75.2,73.4,94,30.04,6.0,Calm,Calm,-,0.00,,Partly Cloudy,0,2013-06-05 03:15:00
11:35 PM,73.4,73.4,100,30.02,5.0,Calm,Calm,-,0.00,,Clear,0,2013-06-05 03:35:00
11:55 PM,73.4,73.4,100,30.02,3.0,Calm,Calm,-,0.00,,Clear,0,2013-06-05 03:55:00